»·PEaware :: N121MC KBOI-KSUN

N121MC :: KBOI-KSUN

FLIGHT INFORMATION

Flight Status: Arrived
Operator: Privately registered:
United States
More flights under this callsign
Pilot: Renato C. (3281)
Aircraft: Unknown
(C90)
More flights by this aircraft type
Origin: KBOI Boise Air Terminal/Gowen
United States
Destination: KSUN Friedman Meml
United States
More flights between these airports :: More routes between these airports
Route: BOI V500 SOLDE
File this flight plan on PilotEdge
Remarks:
Altitude:
(Current/Filed)
11,000ft
Speed:
(Current/Filed)
240kts
Departed: 03-Sep-18 09:27 AM
Arrived: 03-Sep-18 09:57 AM
Distance/Time
Traveled:
84nm/0:30
Distance/Time
To Go:
Arrived

Flight Plot

Page will automatically refresh every two minutes.

Flight plan parsing failed; only flown route is shown


Map Options




Map Legend


Flown Route
Filed Route
Departure Airport
Arrival Airport
Navaid (VOR, NDB)
Fix

Horizontal Profiles

Position Reports

Time Latitude Longitude Heading Altitude Ground
Speed
03-Sep-18 09:06 43.569926 -116.229970 183 2835ft 0kts
03-Sep-18 09:07 43.569926 -116.229970 183 2835ft 0kts
03-Sep-18 09:08 43.569926 -116.229970 183 2835ft 0kts
03-Sep-18 09:09 43.569926 -116.229970 183 2835ft 0kts
03-Sep-18 09:10 43.569926 -116.229970 183 2835ft 0kts
03-Sep-18 09:11 43.569926 -116.229970 183 2835ft 0kts
03-Sep-18 09:16 43.569926 -116.229970 183 2835ft 0kts
03-Sep-18 09:17 43.569926 -116.229970 183 2835ft 0kts
03-Sep-18 09:18 43.569926 -116.229970 183 2835ft 0kts
03-Sep-18 09:19 43.569926 -116.229970 183 2835ft 0kts
03-Sep-18 09:20 43.569926 -116.229970 183 2835ft 0kts
03-Sep-18 09:21 43.569926 -116.229970 183 2835ft 0kts
03-Sep-18 09:22 43.569926 -116.229970 183 2835ft 0kts
03-Sep-18 09:23 43.569774 -116.230045 241 2835ft 6kts
03-Sep-18 09:24 43.569674 -116.230684 182 2834ft 0kts
03-Sep-18 09:25 43.569674 -116.230684 182 2834ft 0kts
03-Sep-18 09:26 43.569674 -116.230684 182 2834ft 0kts
03-Sep-18 09:27 43.570065 -116.232967 295 2831ft 27kts
03-Sep-18 09:28 43.570195 -116.236705 185 2824ft 9kts
03-Sep-18 09:29 43.563271 -116.216937 116 2968ft 136kts
03-Sep-18 09:30 43.545159 -116.168011 115 4607ft 151kts
03-Sep-18 09:31 43.525123 -116.114913 115 6210ft 162kts
03-Sep-18 09:32 43.504951 -116.058138 116 7739ft 171kts
03-Sep-18 09:33 43.491743 -115.995553 79 9171ft 176kts
03-Sep-18 09:34 43.498690 -115.926565 95 10386ft 195kts
03-Sep-18 09:35 43.491787 -115.847962 99 11022ft 228kts
03-Sep-18 09:36 43.475026 -115.758823 106 11028ft 249kts
03-Sep-18 09:37 43.452096 -115.667453 107 11010ft 255kts
03-Sep-18 09:38 43.436614 -115.572001 101 10953ft 256kts
03-Sep-18 09:39 43.421645 -115.476411 98 10994ft 254kts
03-Sep-18 09:40 43.406446 -115.381482 103 11015ft 254kts
03-Sep-18 09:41 43.388616 -115.290153 105 10972ft 256kts
03-Sep-18 09:42 43.369473 -115.196291 100 11004ft 254kts
03-Sep-18 09:43 43.354804 -115.101197 103 11018ft 254kts
03-Sep-18 09:44 43.334546 -115.008152 104 11044ft 254kts
03-Sep-18 09:45 43.320532 -114.913124 95 11074ft 253kts
03-Sep-18 09:45 43.305144 -114.834822 110 11069ft 255kts
03-Sep-18 09:47 43.283573 -114.725812 100 11144ft 252kts
03-Sep-18 09:48 43.264143 -114.633160 103 11102ft 253kts
03-Sep-18 09:48 43.252393 -114.554562 104 11082ft 253kts
03-Sep-18 09:49 43.233312 -114.461126 101 11106ft 254kts
03-Sep-18 09:50 43.215442 -114.367998 108 11122ft 255kts
03-Sep-18 09:52 43.244884 -114.273142 50 10606ft 245kts
03-Sep-18 09:52 43.286528 -114.223975 31 9627ft 239kts
03-Sep-18 09:53 43.344673 -114.193957 345 8763ft 207kts
03-Sep-18 09:54 43.392506 -114.213465 331 7789ft 152kts
03-Sep-18 09:55 43.425762 -114.237597 332 7125ft 136kts
03-Sep-18 09:56 43.459445 -114.260664 332 6218ft 133kts
03-Sep-18 09:57 43.489717 -114.281984 325 5444ft 104kts
03-Sep-18 09:58 43.503799 -114.296342 235 5286ft 14kts
03-Sep-18 09:59 43.500274 -114.294803 236 5276ft 12kts
03-Sep-18 10:00 43.500347 -114.294941 57 5276ft 0kts
03-Sep-18 10:01 43.500347 -114.294941 57 5276ft 0kts
03-Sep-18 10:02 43.500347 -114.294941 57 5276ft 0kts

Navigation Log

Ident Type
Flight plan parsing failed, navigation log unavailable